Airfield :
LOGIN :

Register | Disclaimer

   EN    FR    IT 

 










Legend :    VFR   Marginal VFR   IFR   Intensive IFR   Very Intensive IFR
Visi :
Ceiling :
>= 8 km
>= 3000ft
5 to 8 km
1000 to 3000 ft
1500m to 5 km
500 to 1000 ft
800 to 1500m
200 to 500 ft
< 800m
< 200 ft
Symbols :   Thunderstorms  Fog  Heavy snow  Heavy precipitations  Wind > 20 kt
SIGMETs :     Misc.  Thunderstorms  Icing  Turbulence  Mountain Waves  Volcanic Ashes







- Airport Elevation : 659 ft
- IATA code : LGG


EBLG - Liège

CURRENT METAR :
  • 220420Z 16009KT CAVOK 15/09 Q1014 NOSIG

EXPIRED METARs :
  • 220350Z 17008KT CAVOK 16/10 Q1014 NOSIG
  • 220320Z 21003KT CAVOK 14/10 Q1014 NOSIG
  • 220250Z 21002KT CAVOK 15/09 Q1014 NOSIG
  • 220220Z 16003KT 120V210 CAVOK 16/10 Q1015 NOSIG
  • 220150Z 16003KT 110V200 CAVOK 16/10 Q1015 NOSIG

TAF TAF EBLG
Valid from the 22 at 00:00 until the 23 at 06:00 UTC


212320Z 2200/2306 VRB03KT 9000 NSC
PROB30
TEMPO 2206/2211 VRB15G25KT 4000 SHRA -TSRA
BECMG 2212/2214 22010KT
PROB30
TEMPO 2212/2219 4000 SHRA -TSRA
PROB30
TEMPO 2303/2306 3500 RA SHRA SCT005 BKN010
No reported NOTAMs for that airfield.



MET'MAP, your aeronautical weather chart ! - Copyright ORBIFLY December 2007 - Disclaimer

ORBIFLY MET'MAP TEAM :

Programming & Development : Alexandra Zaïnal
Concept & Development : Baudouin d'Aumeries
Co-Development & Prog : Marc-Olivier Méhu
Technical & hardware support : Manuel Goepfert

Contact : metmap@orbifly.com




SOURCES & CREDITS :

   NOAA